Archival Weather

Greater Kankakee

Kankakee, Illinois (KIKK)

Report from: Wednesday, December 6, 2023 4:55 PM CST
Current time: Saturday, February 24, 2024 10:13 AM CST

Current weather – Weather history – Daily summaries
Weather forecast

Temperature1.5°C (34.7°F)
Wind chill-3.1°C (26.4°F)
Dew point-1.1°C (30.0°F)
Winds 10 kts (5.1 m/s, 11.5 mph) Southwest (220°)
Wind gusts 15 kts (7.7 m/s, 17.3 mph)
Visibility10 mi. (16.1 km)
Clouds Ceiling: Overcast 1,300 ft. (396 m)
Altimeter30.22 in.Hg (1023 mB)
Relative humidity83 %
Density altitude-1,902 ft. (-580 m)
Remarks Fully automated report
Automated weather observing station with precipitation discriminator
Present weather sensor not operating
Flight conditions Marginal Visual Meteorological Conditions
Raw dataKIKK 062255Z AUTO 22010G15KT 10SM OVC013 02/M01 A3022 RMK AO2 T00151011 PWINO
An error has occurred. This application may no longer respond until reloaded. Reload 🗙